Time;durP1;ratioP1;P1;durP2;ratioP2;P2;SDS_P1;SDS_P2;PMS_P1;PMS_P2;Temp;Humidity;BMP_temperature;BMP_pressure;BME280_temperature;BME280_humidity;BME280_pressure;Samples;Min_cycle;Max_cycle;Signal;HPM_P1;HPM_P2
2022/01/12 00:00:24;;;;;;;56.03;13.60;;;1.10;99.90;;;;;;4967522;28;20022;-93
2022/01/12 00:02:51;;;;;;;63.92;11.63;;;1.00;99.90;;;;;;4966417;28;20064;-93
2022/01/12 00:05:18;;;;;;;35.83;11.82;;;1.00;99.90;;;;;;4965986;28;20030;-93
2022/01/12 00:07:46;;;;;;;38.35;11.00;;;1.00;99.90;;;;;;4967582;28;20026;-94
2022/01/12 00:10:12;;;;;;;34.53;10.40;;;0.90;99.90;;;;;;4968059;28;20050;-94
2022/01/12 00:12:37;;;;;;;55.25;12.82;;;0.90;99.90;;;;;;4965508;28;20022;-92
2022/01/12 00:15:04;;;;;;;33.40;11.00;;;0.90;99.90;;;;;;4965603;28;20369;-94
2022/01/12 00:17:29;;;;;;;29.70;11.13;;;0.90;99.90;;;;;;4968329;28;20057;-94
2022/01/12 00:19:55;;;;;;;25.77;10.30;;;0.80;99.90;;;;;;4971058;28;20042;-94
2022/01/12 00:22:21;;;;;;;72.22;10.75;;;0.80;99.90;;;;;;4977603;28;20423;-93
2022/01/12 00:25:44;;;;;;;34.50;10.55;;;0.80;99.90;;;;;;4977305;28;20026;-95
2022/01/12 00:33:14;;;;;;;57.33;9.18;;;0.70;99.90;;;;;;5001744;28;20050;-93
2022/01/12 00:35:42;;;;;;;25.10;9.60;;;0.70;99.90;;;;;;4981033;28;20022;-93
2022/01/12 00:38:08;;;;;;;44.85;9.90;;;0.70;99.90;;;;;;4980713;28;20080;-94
2022/01/12 00:40:39;;;;;;;30.50;10.13;;;0.60;99.90;;;;;;4981056;28;20030;-94
2022/01/12 00:43:06;;;;;;;34.35;10.68;;;0.60;99.90;;;;;;4980568;28;20483;-93
2022/01/12 00:45:34;;;;;;;98.05;13.93;;;0.60;99.90;;;;;;4980366;28;20030;-93
2022/01/12 00:48:00;;;;;;;34.70;10.50;;;0.60;99.90;;;;;;4980448;28;20165;-94
2022/01/12 00:50:27;;;;;;;36.65;11.73;;;0.50;99.90;;;;;;4980161;28;20085;-93
2022/01/12 00:52:53;;;;;;;36.65;10.70;;;0.50;99.90;;;;;;4980255;28;20046;-93
2022/01/12 00:58:01;;;;;;;32.40;10.63;;;0.50;99.90;;;;;;4948804;28;20033;-94
2022/01/12 01:00:29;;;;;;;27.70;10.00;;;0.50;99.90;;;;;;4985631;28;20500;-94
2022/01/12 01:02:55;;;;;;;21.27;8.77;;;0.50;99.90;;;;;;4980615;28;20093;-94
2022/01/12 01:05:27;;;;;;;22.17;9.68;;;0.50;99.90;;;;;;4980198;28;20035;-95
2022/01/12 01:07:53;;;;;;;23.63;7.95;;;0.50;99.90;;;;;;4980417;28;20030;-93
2022/01/12 01:10:30;;;;;;;20.02;8.38;;;0.50;99.90;;;;;;4980495;28;20030;-93
2022/01/12 01:12:56;;;;;;;24.17;7.93;;;0.40;99.90;;;;;;4980123;28;20172;-92
2022/01/12 01:15:39;;;;;;;21.75;8.57;;;0.50;99.90;;;;;;4978911;28;20106;-95
2022/01/12 01:26:18;;;;;;;18.27;7.60;;;0.50;99.90;;;;;;4997661;28;20117;-94
2022/01/12 01:28:44;;;;;;;21.48;8.35;;;0.50;99.90;;;;;;4980567;28;20030;-94
2022/01/12 01:31:09;;;;;;;19.30;6.90;;;0.50;99.90;;;;;;4987796;28;20027;-95
2022/01/12 01:33:35;;;;;;;17.85;8.00;;;0.50;99.90;;;;;;4999071;28;20022;-94
2022/01/12 01:36:01;;;;;;;21.60;8.27;;;0.50;99.90;;;;;;5000496;28;20018;-93
2022/01/12 01:38:27;;;;;;;21.25;8.02;;;0.60;99.90;;;;;;4999608;28;20061;-93
2022/01/12 01:40:53;;;;;;;16.30;7.05;;;0.50;99.90;;;;;;4984926;28;20023;-93
2022/01/12 01:54:18;;;;;;;19.75;6.50;;;0.60;99.90;;;;;;4940183;29;20046;-93
2022/01/12 01:56:44;;;;;;;13.77;4.32;;;0.50;99.90;;;;;;4948560;29;20028;-93
2022/01/12 01:59:10;;;;;;;20.17;4.70;;;0.60;99.90;;;;;;4955544;29;20032;-93
2022/01/12 02:01:36;;;;;;;15.02;6.15;;;0.60;99.90;;;;;;4945194;29;20043;-94
2022/01/12 02:04:04;;;;;;;16.95;6.40;;;0.60;99.90;;;;;;4921870;29;20040;-92
2022/01/12 02:06:29;;;;;;;14.98;6.38;;;0.60;99.90;;;;;;4919847;29;20429;-93
2022/01/12 02:08:56;;;;;;;13.27;5.80;;;0.60;99.90;;;;;;4919517;29;20122;-94
2022/01/12 02:11:26;;;;;;;15.38;5.90;;;0.60;99.90;;;;;;4919875;29;20047;-95
2022/01/12 02:13:53;;;;;;;23.53;6.77;;;0.60;99.90;;;;;;4921018;29;20028;-92
2022/01/12 02:16:31;;;;;;;19.40;4.30;;;0.70;99.90;;;;;;4927230;29;20298;-93
2022/01/12 02:40:35;;;;;;;16.10;6.43;;;0.50;99.90;;;;;;4974951;28;20031;-92
2022/01/12 02:53:54;;;;;;;15.07;5.55;;;0.60;99.90;;;;;;4957535;28;20106;-93
2022/01/12 02:56:23;;;;;;;25.08;6.85;;;0.50;99.90;;;;;;4973021;28;20085;-93
2022/01/12 02:58:51;;;;;;;17.00;5.68;;;0.50;99.90;;;;;;4957436;28;20098;-92
2022/01/12 03:04:14;;;;;;;22.38;5.35;;;0.50;99.90;;;;;;4974105;28;20046;-93
2022/01/12 03:06:42;;;;;;;13.48;5.10;;;0.50;99.90;;;;;;4957150;28;20027;-93
2022/01/12 03:09:10;;;;;;;25.73;6.35;;;0.50;99.90;;;;;;4957106;28;20485;-93
2022/01/12 03:11:37;;;;;;;13.75;5.50;;;0.60;99.90;;;;;;4957474;28;20201;-93
2022/01/12 03:14:03;;;;;;;14.98;5.20;;;0.60;99.90;;;;;;4957361;28;20046;-95
2022/01/12 03:16:29;;;;;;;21.05;7.43;;;0.60;99.90;;;;;;4956889;28;20027;-94
2022/01/12 03:19:01;;;;;;;28.10;7.57;;;0.60;99.90;;;;;;4956890;28;20027;-94
2022/01/12 03:21:34;;;;;;;18.15;7.72;;;0.50;99.90;;;;;;4956878;28;20423;-94
2022/01/12 03:24:01;;;;;;;19.27;6.13;;;0.50;99.90;;;;;;4961759;28;20042;-92
2022/01/12 03:26:29;;;;;;;13.07;5.82;;;0.50;99.90;;;;;;4966652;28;20122;-94
2022/01/12 03:28:56;;;;;;;25.35;7.00;;;0.50;99.90;;;;;;4967883;28;20050;-93
2022/01/12 03:31:26;;;;;;;18.58;7.53;;;0.50;99.90;;;;;;4960509;28;20050;-95
2022/01/12 03:33:57;;;;;;;32.87;7.77;;;0.60;99.90;;;;;;4957197;28;20037;-94
2022/01/12 03:38:50;;;;;;;18.88;6.68;;;0.80;99.90;;;;;;4979822;28;20399;-94
2022/01/12 03:41:16;;;;;;;20.48;5.35;;;0.90;99.90;;;;;;4963362;28;20027;-93
2022/01/12 03:43:42;;;;;;;17.30;4.97;;;0.90;99.90;;;;;;4956679;28;20039;-95
2022/01/12 03:46:08;;;;;;;14.65;5.32;;;0.90;99.90;;;;;;4956867;28;20022;-93
2022/01/12 03:48:34;;;;;;;16.92;5.93;;;1.00;99.90;;;;;;4956887;28;20181;-94
2022/01/12 03:51:00;;;;;;;13.77;5.43;;;1.00;99.90;;;;;;4957303;28;20484;-94
2022/01/12 03:53:25;;;;;;;20.05;4.57;;;1.00;99.90;;;;;;4960479;28;20023;-93
2022/01/12 03:55:51;;;;;;;19.10;5.80;;;1.00;99.90;;;;;;4968623;28;20045;-93
2022/01/12 03:58:17;;;;;;;11.68;5.53;;;0.90;99.90;;;;;;4979025;28;20031;-94
2022/01/12 04:00:42;;;;;;;16.75;5.20;;;0.90;99.90;;;;;;4979469;28;20433;-91
2022/01/12 04:03:08;;;;;;;12.80;5.05;;;0.90;99.90;;;;;;4966807;28;20039;-94
2022/01/12 04:08:20;;;;;;;21.52;6.30;;;0.90;99.90;;;;;;4974737;28;20030;-93
2022/01/12 04:10:52;;;;;;;17.40;5.80;;;0.90;99.90;;;;;;4961019;28;20499;-94
2022/01/12 04:13:21;;;;;;;14.02;4.63;;;0.80;99.90;;;;;;4960698;28;20181;-93
2022/01/12 04:15:49;;;;;;;19.85;4.88;;;0.80;99.90;;;;;;4960486;28;20031;-95
2022/01/12 04:18:15;;;;;;;15.73;4.13;;;0.80;99.90;;;;;;4960353;28;20535;-94
2022/01/12 04:20:49;;;;;;;15.23;3.85;;;0.80;99.90;;;;;;4959911;28;20046;-95
2022/01/12 04:23:17;;;;;;;13.40;4.40;;;0.90;99.90;;;;;;4960596;28;20086;-94
2022/01/12 04:25:44;;;;;;;11.15;4.47;;;0.90;99.90;;;;;;4960624;28;20028;-94
2022/01/12 04:28:12;;;;;;;16.83;4.93;;;0.90;99.90;;;;;;4960730;28;20042;-94
2022/01/12 04:30:39;;;;;;;15.35;5.22;;;0.90;99.90;;;;;;4976268;28;20033;-91
2022/01/12 04:33:04;;;;;;;16.67;5.13;;;0.90;99.90;;;;;;4960373;28;20027;-94
2022/01/12 04:35:34;;;;;;;12.23;4.35;;;0.80;99.90;;;;;;4964010;28;20026;-93
2022/01/12 04:37:59;;;;;;;22.80;5.00;;;0.80;99.90;;;;;;4971279;28;20027;-93
2022/01/12 04:40:25;;;;;;;17.48;5.40;;;0.80;99.90;;;;;;4967361;28;20033;-94
2022/01/12 04:42:53;;;;;;;18.25;4.85;;;0.80;99.90;;;;;;4959782;28;20050;-94
2022/01/12 04:45:37;;;;;;;16.40;4.68;;;0.80;99.90;;;;;;4959907;28;20034;-92
2022/01/12 04:50:43;;;;;;;11.55;4.10;;;0.80;99.90;;;;;;4977488;28;20027;-93
2022/01/12 04:53:10;;;;;;;16.33;4.30;;;0.80;99.90;;;;;;4960041;28;20026;-93
2022/01/12 04:55:36;;;;;;;16.70;4.63;;;0.80;99.90;;;;;;4959818;28;20023;-94
2022/01/12 04:58:02;;;;;;;14.48;4.55;;;0.70;99.90;;;;;;4960297;28;20030;-92
2022/01/12 05:00:30;;;;;;;13.95;4.90;;;0.80;99.90;;;;;;4960574;28;20034;-94
2022/01/12 05:13:40;;;;;;;15.82;4.38;;;0.80;99.90;;;;;;4977255;28;20128;-93
2022/01/12 05:16:10;;;;;;;16.65;5.18;;;0.80;99.90;;;;;;4959669;28;20120;-93
2022/01/12 05:18:36;;;;;;;13.98;4.30;;;0.80;99.90;;;;;;4959527;28;20081;-95
2022/01/12 05:21:02;;;;;;;19.77;4.28;;;0.80;99.90;;;;;;4958710;28;20547;-93
2022/01/12 05:23:30;;;;;;;12.23;4.50;;;0.80;99.90;;;;;;4959400;28;20058;-92
2022/01/12 05:25:56;;;;;;;15.73;4.50;;;0.80;99.90;;;;;;4959261;28;20040;-93
2022/01/12 05:28:23;;;;;;;26.45;5.05;;;0.80;99.90;;;;;;4963782;28;20121;-93
2022/01/12 05:30:50;;;;;;;15.38;4.28;;;0.80;99.90;;;;;;4963123;28;20057;-93
2022/01/12 05:33:17;;;;;;;14.48;4.15;;;0.80;99.90;;;;;;4959240;28;20027;-94
2022/01/12 05:35:43;;;;;;;17.00;4.32;;;0.80;99.90;;;;;;4958928;28;20046;-92
2022/01/12 05:38:12;;;;;;;12.20;4.72;;;0.90;99.90;;;;;;4959344;28;20022;-93
2022/01/12 05:40:39;;;;;;;18.55;4.40;;;0.90;99.90;;;;;;4960442;28;20031;-91
2022/01/12 05:43:06;;;;;;;10.60;3.60;;;0.90;99.90;;;;;;4970928;28;20449;-96
2022/01/12 05:45:34;;;;;;;16.10;4.22;;;0.90;99.90;;;;;;4975082;28;20023;-92
2022/01/12 05:50:28;;;;;;;15.15;4.03;;;0.90;99.90;;;;;;4978455;28;20038;-93
2022/01/12 05:52:55;;;;;;;14.93;3.42;;;0.90;99.90;;;;;;4959763;28;20031;-92
2022/01/12 05:55:21;;;;;;;21.85;4.22;;;1.00;99.90;;;;;;4960827;28;20033;-93
2022/01/12 05:57:48;;;;;;;12.93;5.10;;;1.00;99.90;;;;;;4967807;28;20035;-92
2022/01/12 06:00:16;;;;;;;18.63;4.53;;;1.00;99.90;;;;;;4990263;28;20027;-92
2022/01/12 06:02:42;;;;;;;13.60;3.55;;;0.90;99.90;;;;;;4975004;28;20046;-92
2022/01/12 06:05:08;;;;;;;9.73;4.93;;;0.90;99.90;;;;;;4959872;28;20030;-94
2022/01/12 06:07:34;;;;;;;21.17;5.43;;;0.90;99.90;;;;;;4958448;28;20592;-95
2022/01/12 06:10:00;;;;;;;13.93;4.82;;;0.80;99.90;;;;;;4959165;28;20023;-95
2022/01/12 06:12:26;;;;;;;18.95;5.68;;;0.80;99.90;;;;;;4959765;28;20599;-91
2022/01/12 06:14:52;;;;;;;9.27;3.75;;;0.80;99.90;;;;;;4959166;28;20035;-93
2022/01/12 06:17:18;;;;;;;13.98;4.75;;;0.80;99.90;;;;;;4976873;28;20023;-91
2022/01/12 06:19:44;;;;;;;13.23;4.45;;;0.90;99.90;;;;;;4971090;28;20142;-93
2022/01/12 06:22:10;;;;;;;16.42;4.05;;;0.90;99.90;;;;;;4977552;28;20039;-94
2022/01/12 06:24:36;;;;;;;15.13;5.32;;;0.90;99.90;;;;;;4977535;28;20035;-94
2022/01/12 06:27:04;;;;;;;22.42;6.18;;;1.00;99.90;;;;;;4966801;28;20050;-93
2022/01/12 06:29:49;;;;;;;15.73;4.40;;;1.00;99.90;;;;;;4964037;28;20037;-92
2022/01/12 06:32:18;;;;;;;13.93;4.60;;;1.00;99.90;;;;;;4959904;28;20515;-93
2022/01/12 06:34:45;;;;;;;20.88;4.25;;;1.00;99.90;;;;;;4975190;28;20070;-93
2022/01/12 06:37:11;;;;;;;18.55;5.45;;;1.00;99.90;;;;;;4957821;28;20121;-93
2022/01/12 06:39:37;;;;;;;16.40;4.45;;;1.10;99.90;;;;;;4958170;28;20058;-93
2022/01/12 06:42:02;;;;;;;16.33;4.38;;;1.10;99.90;;;;;;4957692;28;20035;-94
2022/01/12 06:44:28;;;;;;;22.13;5.15;;;1.10;99.90;;;;;;4957915;28;20027;-94
2022/01/12 06:46:57;;;;;;;17.85;4.63;;;1.10;99.90;;;;;;4957405;28;20027;-93
2022/01/12 06:49:23;;;;;;;12.30;4.75;;;1.00;99.90;;;;;;4957611;28;20027;-94
2022/01/12 06:51:49;;;;;;;12.60;4.15;;;1.10;99.90;;;;;;4957605;28;20038;-93
2022/01/12 06:54:16;;;;;;;12.05;3.63;;;1.10;99.90;;;;;;4957834;28;20025;-94
2022/01/12 06:56:42;;;;;;;19.85;4.43;;;1.10;99.90;;;;;;4957516;28;20030;-94
2022/01/12 06:59:11;;;;;;;17.17;4.45;;;1.10;99.90;;;;;;4962776;28;20117;-93
2022/01/12 07:01:37;;;;;;;13.27;3.88;;;1.20;99.90;;;;;;4969151;28;20034;-93
2022/01/12 07:04:03;;;;;;;9.30;3.75;;;1.20;99.90;;;;;;4964891;28;20038;-94
2022/01/12 07:06:29;;;;;;;19.92;5.05;;;1.20;99.90;;;;;;4964987;28;20027;-92
2022/01/12 07:08:55;;;;;;;26.95;6.45;;;1.20;99.90;;;;;;4966997;28;20069;-93
2022/01/12 07:11:20;;;;;;;23.77;5.10;;;1.20;99.90;;;;;;4967387;28;20018;-93
2022/01/12 07:13:46;;;;;;;20.88;6.15;;;1.20;99.90;;;;;;4967201;28;20027;-93
2022/01/12 07:16:12;;;;;;;19.00;6.55;;;1.10;99.90;;;;;;4969411;28;20027;-92
2022/01/12 07:18:38;;;;;;;25.95;5.97;;;1.10;99.90;;;;;;4978778;28;20113;-92
2022/01/12 07:21:04;;;;;;;16.60;4.38;;;1.10;99.90;;;;;;4965191;28;20070;-93
2022/01/12 07:23:30;;;;;;;21.63;6.03;;;1.00;99.90;;;;;;4967445;28;20495;-92
2022/01/12 07:25:56;;;;;;;23.90;5.32;;;1.10;99.90;;;;;;4966803;28;20026;-93
2022/01/12 07:28:21;;;;;;;16.70;4.95;;;1.00;99.90;;;;;;4971657;28;20037;-93
2022/01/12 07:30:48;;;;;;;20.48;5.63;;;1.10;99.90;;;;;;4972154;28;20023;-92
2022/01/12 07:33:14;;;;;;;13.57;4.90;;;1.10;99.90;;;;;;4972938;28;20065;-94
2022/01/12 07:35:42;;;;;;;13.65;4.18;;;1.20;99.90;;;;;;4963652;28;20026;-94
2022/01/12 07:38:08;;;;;;;14.65;4.57;;;1.20;99.90;;;;;;4969770;28;20034;-94
2022/01/12 07:40:35;;;;;;;13.98;4.65;;;1.20;99.90;;;;;;4969610;28;20046;-93
2022/01/12 07:43:05;;;;;;;12.15;3.88;;;1.20;99.90;;;;;;4968222;28;20488;-93
2022/01/12 07:45:32;;;;;;;14.85;4.18;;;1.30;99.90;;;;;;4967283;28;20034;-91
2022/01/12 07:47:57;;;;;;;22.27;4.80;;;1.40;99.90;;;;;;4979762;28;20065;-92
2022/01/12 07:50:23;;;;;;;16.60;5.15;;;1.40;99.90;;;;;;4980942;28;20049;-93
2022/01/12 07:52:53;;;;;;;17.65;4.13;;;1.50;99.90;;;;;;4971131;28;20033;-92
2022/01/12 07:55:22;;;;;;;21.13;3.80;;;1.60;99.90;;;;;;4969808;28;20030;-95
2022/01/12 07:57:49;;;;;;;25.50;3.88;;;1.60;99.90;;;;;;4970713;28;20037;-94
2022/01/12 08:00:16;;;;;;;21.05;3.42;;;1.80;99.90;;;;;;4971125;28;20027;-93
2022/01/12 08:02:42;;;;;;;18.80;3.50;;;1.80;99.90;;;;;;4977363;28;20038;-93
2022/01/12 08:05:08;;;;;;;17.83;3.75;;;1.90;99.90;;;;;;4985385;28;20037;-94
2022/01/12 08:07:36;;;;;;;18.30;3.03;;;2.00;99.90;;;;;;4999930;28;20026;-93
2022/01/12 08:10:04;;;;;;;21.10;4.35;;;2.10;99.90;;;;;;4990771;28;20107;-94
2022/01/12 08:12:57;;;;;;;26.67;3.97;;;2.10;99.90;;;;;;4985622;28;20023;-95
2022/01/12 08:15:36;;;;;;;15.80;4.60;;;2.20;99.90;;;;;;4975810;28;20088;-93
2022/01/12 08:18:02;;;;;;;13.70;3.10;;;2.30;99.90;;;;;;4976547;28;20042;-93
2022/01/12 08:20:28;;;;;;;17.88;4.07;;;2.40;99.90;;;;;;4972235;28;20586;-91
2022/01/12 08:22:55;;;;;;;9.50;4.00;;;2.40;99.90;;;;;;4969785;28;20073;-90
2022/01/12 08:25:21;;;;;;;10.15;3.47;;;2.40;99.90;;;;;;4977264;28;20045;-93
2022/01/12 08:27:46;;;;;;;12.35;3.45;;;2.40;99.90;;;;;;4972566;28;20026;-92
2022/01/12 08:30:17;;;;;;;14.85;3.03;;;2.40;99.90;;;;;;4972241;28;20121;-93
2022/01/12 08:32:44;;;;;;;14.43;3.22;;;2.40;99.90;;;;;;4970112;28;20034;-91
2022/01/12 08:35:10;;;;;;;10.88;3.10;;;2.40;99.90;;;;;;4969553;28;20032;-94
2022/01/12 08:37:37;;;;;;;19.17;3.85;;;2.40;99.90;;;;;;4964488;28;20090;-91
2022/01/12 08:40:04;;;;;;;20.85;3.97;;;2.40;99.90;;;;;;4960275;28;20034;-94
2022/01/12 08:42:35;;;;;;;16.77;2.92;;;2.40;99.90;;;;;;4959434;28;20035;-91
2022/01/12 08:45:02;;;;;;;15.15;2.70;;;2.50;99.90;;;;;;4960020;28;20110;-93
2022/01/12 08:47:43;;;;;;;21.35;2.97;;;2.50;99.90;;;;;;4963414;28;20026;-92
2022/01/12 08:50:10;;;;;;;15.45;3.35;;;2.60;99.90;;;;;;4992664;28;20034;-93
2022/01/12 08:52:36;;;;;;;15.15;3.28;;;2.60;99.90;;;;;;4972803;28;20089;-93
2022/01/12 08:55:02;;;;;;;12.57;3.20;;;2.60;99.90;;;;;;4971401;28;20030;-94
2022/01/12 08:57:31;;;;;;;16.30;3.25;;;2.60;99.90;;;;;;4972650;28;20059;-94
2022/01/12 08:59:58;;;;;;;22.45;3.97;;;2.70;99.90;;;;;;4971831;28;20062;-94
2022/01/12 09:02:24;;;;;;;23.25;3.05;;;2.90;99.90;;;;;;4981917;28;20042;-94
2022/01/12 09:04:50;;;;;;;20.15;3.83;;;3.00;99.90;;;;;;4987848;28;20039;-93
2022/01/12 09:07:15;;;;;;;17.25;4.07;;;3.10;99.90;;;;;;4992728;28;20011;-94
2022/01/12 09:09:41;;;;;;;12.98;3.42;;;3.30;99.90;;;;;;4988963;28;20045;-94
2022/01/12 09:12:08;;;;;;;12.70;2.85;;;3.40;99.90;;;;;;4988363;28;20056;-93
2022/01/12 09:14:34;;;;;;;14.15;2.78;;;3.40;99.90;;;;;;4979170;28;20042;-92
2022/01/12 09:17:00;;;;;;;22.05;2.42;;;3.40;99.90;;;;;;4982844;28;20037;-93
2022/01/12 09:19:27;;;;;;;17.17;2.55;;;3.40;99.90;;;;;;4970775;28;20019;-94
2022/01/12 09:21:56;;;;;;;10.23;2.38;;;3.40;99.90;;;;;;4972327;28;20049;-93
2022/01/12 09:29:48;;;;;;;11.98;3.05;;;3.50;99.90;;;;;;5190977;23;20065;-95
2022/01/12 09:32:14;;;;;;;17.83;2.38;;;3.50;99.90;;;;;;4955293;28;20041;-93
2022/01/12 09:34:42;;;;;;;14.50;2.80;;;3.70;99.90;;;;;;4954478;28;20027;-93
2022/01/12 09:57:06;;;;;;;5.90;1.80;;;5.10;99.90;;;;;;5467552;23;20059;-93
2022/01/12 09:59:32;;;;;;;8.68;2.42;;;5.20;99.90;;;;;;4943346;29;20031;-94
2022/01/12 10:02:01;;;;;;;6.88;1.75;;;5.40;99.90;;;;;;4944552;29;20031;-95
2022/01/12 10:04:29;;;;;;;12.02;2.67;;;5.70;99.90;;;;;;4949950;29;20035;-96
2022/01/12 10:07:01;;;;;;;9.63;2.35;;;5.80;99.90;;;;;;4942750;29;20046;-94
2022/01/12 10:09:36;;;;;;;11.25;2.40;;;6.10;99.90;;;;;;4938495;29;20034;-96
2022/01/12 10:12:05;;;;;;;10.65;2.00;;;6.40;99.90;;;;;;4955240;29;20031;-92
2022/01/12 10:15:01;;;;;;;16.15;2.97;;;6.70;99.90;;;;;;4937913;29;20042;-92
2022/01/12 10:17:45;;;;;;;12.50;2.30;;;7.00;99.90;;;;;;4938478;29;20042;-92
2022/01/12 10:20:21;;;;;;;18.73;2.63;;;7.30;99.90;;;;;;4940415;29;20404;-92
2022/01/12 10:23:11;;;;;;;11.52;2.25;;;7.60;99.90;;;;;;4938499;29;20043;-93
2022/01/12 10:25:38;;;;;;;19.38;2.40;;;7.80;99.90;;;;;;4938277;29;20042;-93
2022/01/12 10:31:24;;;;;;;14.68;1.83;;;8.30;99.90;;;;;;6072272;23;20022;31
2022/01/12 10:34:02;;;;;;;15.35;2.10;;;8.50;99.90;;;;;;4929112;29;20044;-94
2022/01/12 10:36:39;;;;;;;10.15;2.80;;;8.70;99.90;;;;;;4918765;29;20051;-92
2022/01/12 10:39:10;;;;;;;11.07;2.13;;;8.90;99.90;;;;;;4900550;29;20032;-90
2022/01/12 10:41:40;;;;;;;11.68;2.25;;;9.00;99.90;;;;;;4900571;29;20134;-93
2022/01/12 10:44:22;;;;;;;10.15;2.35;;;9.20;99.90;;;;;;4932231;29;20036;-92
2022/01/12 10:46:51;;;;;;;16.70;2.22;;;9.30;99.90;;;;;;4918707;29;20027;-93
2022/01/12 10:49:21;;;;;;;15.50;2.65;;;9.50;99.90;;;;;;4921500;29;20090;-93
2022/01/12 10:51:59;;;;;;;13.93;2.88;;;9.60;99.90;;;;;;4921523;29;20055;-92
2022/01/12 10:54:25;;;;;;;8.52;2.67;;;9.80;99.90;;;;;;4922963;29;20028;-94
2022/01/12 10:56:52;;;;;;;15.10;2.15;;;10.00;99.90;;;;;;4925594;29;20058;-93
2022/01/12 10:59:20;;;;;;;13.63;1.92;;;10.10;99.90;;;;;;4921360;29;20038;-93
2022/01/12 11:01:46;;;;;;;15.40;1.77;;;10.10;99.90;;;;;;4921136;29;20039;-91
2022/01/12 11:04:13;;;;;;;16.55;2.65;;;10.10;99.90;;;;;;4920710;29;20043;-94
2022/01/12 11:06:40;;;;;;;11.75;2.38;;;10.10;99.90;;;;;;4919406;29;20057;-94
2022/01/12 11:09:06;;;;;;;14.27;3.38;;;10.20;99.90;;;;;;4928049;29;20028;-94
2022/01/12 11:11:40;;;;;;;15.13;3.03;;;10.30;99.90;;;;;;4920699;29;20035;-94
2022/01/12 11:14:06;;;;;;;12.85;2.00;;;10.60;99.90;;;;;;4922084;29;20099;-92
2022/01/12 11:16:36;;;;;;;14.10;1.80;;;10.80;99.90;;;;;;4924041;29;20070;-93
2022/01/12 11:19:07;;;;;;;14.82;2.10;;;10.90;99.90;;;;;;4907276;29;20474;-93
2022/01/12 11:21:41;;;;;;;8.85;2.17;;;11.10;99.90;;;;;;4921004;29;20031;-92
2022/01/12 11:24:13;;;;;;;15.32;2.40;;;11.10;99.90;;;;;;4921773;29;20036;-95
2022/01/12 11:26:52;;;;;;;15.10;2.63;;;11.20;99.90;;;;;;4922040;29;20059;-94
2022/01/12 11:29:28;;;;;;;13.07;2.53;;;11.30;99.90;;;;;;4906940;29;20020;-95
2022/01/12 11:32:05;;;;;;;9.80;2.42;;;11.30;99.90;;;;;;4918751;29;20050;-94
2022/01/12 11:34:31;;;;;;;11.40;2.75;;;11.40;99.90;;;;;;4925225;29;20098;-95
2022/01/12 11:37:14;;;;;;;12.02;1.70;;;11.60;99.90;;;;;;4925771;29;20035;-94
2022/01/12 11:39:40;;;;;;;14.48;2.85;;;11.70;99.90;;;;;;4926135;29;20027;-93
2022/01/12 11:42:17;;;;;;;8.13;1.67;;;12.00;99.90;;;;;;4930075;29;20028;-95
2022/01/12 11:44:43;;;;;;;16.13;2.67;;;12.30;99.90;;;;;;4947333;29;20040;-95
2022/01/12 11:47:21;;;;;;;12.48;1.90;;;12.40;99.90;;;;;;4930471;29;20023;-94
2022/01/12 11:49:52;;;;;;;11.05;2.38;;;12.60;99.90;;;;;;4929523;29;20057;-94
2022/01/12 11:52:26;;;;;;;21.20;2.78;;;13.00;99.90;;;;;;4929620;29;20024;-95
2022/01/12 11:55:10;;;;;;;8.90;2.20;;;13.40;99.90;;;;;;4929798;29;20028;-94
2022/01/12 11:57:48;;;;;;;11.70;2.03;;;13.60;99.90;;;;;;4925509;29;20028;-95
2022/01/12 12:00:23;;;;;;;11.20;3.22;;;13.50;99.90;;;;;;4922213;29;20109;-92
2022/01/12 12:02:51;;;;;;;6.95;1.60;;;13.10;99.90;;;;;;4931031;29;20044;-94
2022/01/12 12:05:25;;;;;;;12.35;1.90;;;12.80;99.90;;;;;;4919661;29;20035;-94
2022/01/12 12:08:04;;;;;;;13.57;2.25;;;12.40;99.90;;;;;;4919037;29;20035;-94
2022/01/12 12:10:34;;;;;;;11.77;2.17;;;12.00;99.90;;;;;;4919168;29;20039;-94
2022/01/12 12:13:03;;;;;;;9.57;1.98;;;11.70;99.90;;;;;;4917398;29;20032;-91
2022/01/12 12:15:29;;;;;;;10.27;2.10;;;11.50;99.90;;;;;;4916059;29;20065;-95
2022/01/12 12:18:03;;;;;;;10.40;2.67;;;11.20;99.90;;;;;;4900946;29;20032;-92
2022/01/12 12:20:31;;;;;;;9.30;1.88;;;11.00;99.90;;;;;;4906658;29;20028;-91
2022/01/12 12:22:57;;;;;;;8.80;2.45;;;10.90;99.90;;;;;;4920500;29;20047;-95
2022/01/12 12:25:26;;;;;;;10.85;2.15;;;10.90;99.90;;;;;;4950267;29;20027;-94
2022/01/12 12:27:54;;;;;;;10.02;1.65;;;11.10;99.90;;;;;;4941835;29;20051;-93
2022/01/12 12:30:22;;;;;;;10.70;2.25;;;11.20;99.90;;;;;;4936641;29;20051;-95
2022/01/12 12:33:05;;;;;;;8.93;2.20;;;11.30;99.90;;;;;;4943474;28;20044;-95
2022/01/12 12:35:33;;;;;;;5.65;1.80;;;11.70;99.90;;;;;;4919368;29;20111;-95
2022/01/12 12:38:02;;;;;;;17.02;2.42;;;11.90;99.90;;;;;;4921975;29;20027;-94
2022/01/12 12:40:36;;;;;;;9.95;2.70;;;12.10;99.90;;;;;;4922094;29;20031;-94
2022/01/12 12:43:19;;;;;;;4.43;1.58;;;12.40;99.90;;;;;;4920281;29;20182;-91
2022/01/12 12:45:48;;;;;;;12.20;2.03;;;12.50;99.90;;;;;;4926736;29;20092;-95
2022/01/12 12:48:40;;;;;;;6.70;1.80;;;12.30;99.90;;;;;;4929097;29;20043;-93
2022/01/12 12:51:13;;;;;;;5.25;1.20;;;12.00;99.90;;;;;;4915106;29;20028;-93
2022/01/12 12:53:45;;;;;;;11.82;2.03;;;11.70;99.90;;;;;;4929155;29;20102;-93
2022/01/12 12:56:15;;;;;;;13.02;1.80;;;11.60;99.90;;;;;;4932545;29;20039;-95
2022/01/12 12:58:51;;;;;;;5.85;1.52;;;11.60;99.90;;;;;;4930427;29;20160;-93
2022/01/12 13:01:19;;;;;;;9.27;1.50;;;11.70;99.90;;;;;;4930566;29;20043;-94
2022/01/12 13:03:57;;;;;;;4.68;1.75;;;11.70;99.90;;;;;;4918920;29;20032;-93
2022/01/12 13:06:30;;;;;;;6.05;1.77;;;11.60;99.90;;;;;;4920837;29;20028;-93
2022/01/12 13:09:20;;;;;;;5.93;1.33;;;11.30;99.90;;;;;;4919424;29;20020;-93
2022/01/12 13:11:51;;;;;;;10.10;1.17;;;11.00;99.90;;;;;;4918232;29;20119;-94
2022/01/12 13:14:21;;;;;;;7.00;1.58;;;10.50;99.90;;;;;;4919188;29;20370;-93
2022/01/12 13:16:53;;;;;;;7.57;1.80;;;10.20;99.90;;;;;;4919412;29;20025;-94
2022/01/12 13:22:30;;;;;;;6.20;1.88;;;10.00;99.90;;;;;;4919661;29;20060;-93
2022/01/12 13:24:58;;;;;;;8.30;1.77;;;10.10;99.90;;;;;;4918575;29;20031;-94
2022/01/12 13:27:26;;;;;;;8.05;1.58;;;10.10;99.90;;;;;;4917688;29;20051;-93
2022/01/12 13:29:52;;;;;;;7.68;2.00;;;10.10;99.90;;;;;;4917373;29;20474;-91
2022/01/12 13:32:18;;;;;;;4.60;1.00;;;10.20;99.90;;;;;;4917977;29;20059;-92
2022/01/12 13:34:56;;;;;;;12.52;1.90;;;10.20;99.90;;;;;;4917942;29;20039;-94
2022/01/12 13:37:25;;;;;;;11.95;2.88;;;10.30;99.90;;;;;;4950584;29;20039;-94
2022/01/12 13:40:13;;;;;;;14.32;3.35;;;10.50;99.90;;;;;;4918588;29;20024;-93
2022/01/12 13:42:54;;;;;;;7.72;2.05;;;10.60;99.90;;;;;;4918314;29;20041;-93
2022/01/12 13:45:27;;;;;;;8.15;2.78;;;11.00;99.90;;;;;;4919126;29;20438;-93
2022/01/12 13:47:57;;;;;;;7.93;2.72;;;11.20;99.90;;;;;;4920796;29;20028;-91
2022/01/12 13:50:36;;;;;;;7.45;2.72;;;11.60;99.90;;;;;;4918675;29;20032;-92
2022/01/12 13:53:38;;;;;;;7.78;2.60;;;11.80;99.90;;;;;;4918511;29;20035;-92
2022/01/12 13:56:09;;;;;;;9.00;2.08;;;12.00;99.90;;;;;;4918033;29;20509;-91
2022/01/12 13:58:37;;;;;;;11.25;2.55;;;12.00;99.90;;;;;;4918529;29;20039;-92
2022/01/12 14:01:10;;;;;;;11.45;2.42;;;12.20;99.90;;;;;;4918209;29;20028;-91
2022/01/12 14:03:48;;;;;;;10.63;1.92;;;12.40;99.90;;;;;;4917999;29;20035;-92
2022/01/12 14:06:21;;;;;;;8.57;1.88;;;12.80;99.90;;;;;;4918162;29;20025;-93
2022/01/12 14:08:58;;;;;;;6.63;1.98;;;13.60;99.90;;;;;;4951278;29;20042;-93
2022/01/12 14:11:37;;;;;;;6.45;1.30;;;14.20;99.90;;;;;;4920129;29;20036;-93
2022/01/12 14:14:04;;;;;;;8.73;1.80;;;14.60;97.50;;;;;;4918939;29;20031;-94
2022/01/12 14:16:37;;;;;;;8.45;1.90;;;15.10;96.20;;;;;;4918418;29;20039;-94
2022/01/12 14:19:03;;;;;;;8.10;1.70;;;15.40;94.80;;;;;;4919566;29;20636;-93
2022/01/12 14:21:29;;;;;;;15.00;1.80;;;15.50;93.50;;;;;;4920943;29;20475;-96
2022/01/12 14:23:56;;;;;;;14.20;2.90;;;15.40;92.90;;;;;;4921218;29;20051;-94
2022/01/12 14:26:28;;;;;;;9.38;1.65;;;15.40;92.30;;;;;;4950848;29;20032;-93
2022/01/12 14:28:55;;;;;;;10.60;1.90;;;15.20;91.90;;;;;;4922096;29;20025;-94
2022/01/12 14:31:21;;;;;;;7.90;1.33;;;15.30;91.90;;;;;;4927126;29;20043;-94
2022/01/12 14:33:47;;;;;;;15.55;2.45;;;15.40;91.40;;;;;;4930532;29;20470;-95
2022/01/12 14:36:16;;;;;;;9.00;1.88;;;15.10;91.10;;;;;;4930911;29;20466;-94
2022/01/12 14:38:41;;;;;;;9.63;1.92;;;14.40;91.70;;;;;;4927548;29;20067;-95
2022/01/12 14:41:07;;;;;;;9.30;2.30;;;13.80;92.50;;;;;;4923832;29;20087;-94
2022/01/12 14:43:33;;;;;;;15.15;2.15;;;13.10;93.40;;;;;;4922761;29;20047;-93
2022/01/12 14:46:02;;;;;;;7.95;2.45;;;12.50;94.70;;;;;;4921545;29;20023;-92
2022/01/12 14:48:28;;;;;;;7.35;1.80;;;12.00;96.00;;;;;;4921257;29;20032;-94
2022/01/12 14:50:55;;;;;;;12.48;2.65;;;11.60;97.00;;;;;;4921527;29;20082;-93